Terminal Aerodrome Forecast
Issued by NWS

Home | Current Version | Previous Version | Text Only | Print | Product List | Glossary On
Versions: 1 2 3 4 5 6 7 8 9 10 11 12 13 14 15 16
580
FTUS42 KJAX 051722
TAFVQQ
TAF
KVQQ 051722Z 0518/0618 21010G15KT P6SM VCSH SCT025 BKN100 OVC200
     FM052100 12008KT 5SM -RA SCT015 BKN100 OVC120
     FM060600 18010G15KT 4SM RA OVC010
     FM061000 18010G15KT 4SM BR OVC004
      TEMPO 0610/0614 2SM -TSRA BKN004 OVC015CB
     FM061400 21012G18KT 5SM RA OVC015
      TEMPO 0614/0618 2SM -TSRA OVC010CB=

USA.gov is the U.S. government's official web portal to all federal, state and local government web resources and services.